sensor_id;sensor_type;location;lat;lon;timestamp;pressure;altitude;pressure_sealevel;temperature;humidity
63500;BME280;49654;51.142;14.924;2023-03-20T00:00:05;99189.50;;;10.31;77.68
63500;BME280;49654;51.142;14.924;2023-03-20T00:02:35;99213.84;;;10.30;77.49
63500;BME280;49654;51.142;14.924;2023-03-20T00:05:15;99208.50;;;10.23;77.83
63500;BME280;49654;51.142;14.924;2023-03-20T00:07:43;99211.97;;;10.16;77.46
63500;BME280;49654;51.142;14.924;2023-03-20T00:10:10;99212.53;;;10.03;77.77
63500;BME280;49654;51.142;14.924;2023-03-20T00:12:37;99211.53;;;10.04;77.65
63500;BME280;49654;51.142;14.924;2023-03-20T00:15:16;99131.91;;;9.42;78.01
63500;BME280;49654;51.142;14.924;2023-03-20T00:17:45;99212.38;;;9.96;78.08
63500;BME280;49654;51.142;14.924;2023-03-20T00:20:13;99212.91;;;9.84;78.39
63500;BME280;49654;51.142;14.924;2023-03-20T00:22:42;99210.50;;;9.82;78.64
63500;BME280;49654;51.142;14.924;2023-03-20T00:25:12;99213.84;;;9.99;78.31
63500;BME280;49654;51.142;14.924;2023-03-20T00:27:40;99207.41;;;10.18;77.18
63500;BME280;49654;51.142;14.924;2023-03-20T00:30:23;99212.59;;;9.87;78.12
63500;BME280;49654;51.142;14.924;2023-03-20T00:32:51;99178.97;;;9.62;78.46
63500;BME280;49654;51.142;14.924;2023-03-20T00:35:21;99188.69;;;9.68;79.30
63500;BME280;49654;51.142;14.924;2023-03-20T00:37:50;99193.16;;;9.83;79.06
63500;BME280;49654;51.142;14.924;2023-03-20T00:40:18;99194.44;;;9.87;78.89
63500;BME280;49654;51.142;14.924;2023-03-20T00:42:48;99208.19;;;9.87;79.60
63500;BME280;49654;51.142;14.924;2023-03-20T00:45:17;99183.31;;;10.01;79.06
63500;BME280;49654;51.142;14.924;2023-03-20T00:47:47;99205.59;;;10.18;78.47
63500;BME280;49654;51.142;14.924;2023-03-20T00:50:18;99201.97;;;10.36;77.94
63500;BME280;49654;51.142;14.924;2023-03-20T00:52:47;99196.09;;;10.42;77.41
63500;BME280;49654;51.142;14.924;2023-03-20T00:55:16;99138.75;;;9.97;77.63
63500;BME280;49654;51.142;14.924;2023-03-20T00:57:45;99190.31;;;10.32;77.54
63500;BME280;49654;51.142;14.924;2023-03-20T01:00:21;99190.03;;;10.26;77.70
63500;BME280;49654;51.142;14.924;2023-03-20T01:02:50;99193.00;;;10.15;78.06
63500;BME280;49654;51.142;14.924;2023-03-20T01:05:18;99176.09;;;9.88;78.49
63500;BME280;49654;51.142;14.924;2023-03-20T01:07:45;99188.16;;;9.73;79.20
63500;BME280;49654;51.142;14.924;2023-03-20T01:10:13;99198.72;;;9.63;79.91
63500;BME280;49654;51.142;14.924;2023-03-20T01:12:42;99199.69;;;9.70;80.32
63500;BME280;49654;51.142;14.924;2023-03-20T01:15:21;99199.28;;;9.90;79.39
63500;BME280;49654;51.142;14.924;2023-03-20T01:17:48;99187.84;;;10.07;78.21
63500;BME280;49654;51.142;14.924;2023-03-20T01:20:21;99200.47;;;10.10;77.88
63500;BME280;49654;51.142;14.924;2023-03-20T01:22:48;99082.47;;;9.44;78.23
63500;BME280;49654;51.142;14.924;2023-03-20T01:25:16;99175.41;;;10.02;78.15
63500;BME280;49654;51.142;14.924;2023-03-20T01:27:48;99192.09;;;10.00;78.94
63500;BME280;49654;51.142;14.924;2023-03-20T01:30:20;99194.72;;;9.92;79.57
63500;BME280;49654;51.142;14.924;2023-03-20T01:32:47;99199.59;;;9.95;79.48
63500;BME280;49654;51.142;14.924;2023-03-20T01:35:16;99200.25;;;9.89;79.79
63500;BME280;49654;51.142;14.924;2023-03-20T01:37:44;99197.81;;;9.87;80.08
63500;BME280;49654;51.142;14.924;2023-03-20T01:40:30;99197.81;;;9.87;80.47
63500;BME280;49654;51.142;14.924;2023-03-20T01:43:00;99171.47;;;9.67;80.16
63500;BME280;49654;51.142;14.924;2023-03-20T01:45:31;99185.19;;;9.84;80.30
63500;BME280;49654;51.142;14.924;2023-03-20T01:48:01;99195.41;;;9.86;79.84
63500;BME280;49654;51.142;14.924;2023-03-20T01:50:30;99168.69;;;9.77;79.46
63500;BME280;49654;51.142;14.924;2023-03-20T01:53:06;99183.69;;;9.98;79.13
63500;BME280;49654;51.142;14.924;2023-03-20T01:55:34;99181.44;;;9.95;79.55
63500;BME280;49654;51.142;14.924;2023-03-20T01:58:06;99168.50;;;9.87;79.32
63500;BME280;49654;51.142;14.924;2023-03-20T02:00:35;99185.91;;;10.01;79.27
63500;BME280;49654;51.142;14.924;2023-03-20T02:03:05;99157.75;;;9.98;78.73
63500;BME280;49654;51.142;14.924;2023-03-20T02:05:34;99186.13;;;10.22;78.45
63500;BME280;49654;51.142;14.924;2023-03-20T02:08:10;99190.50;;;10.22;78.29
63500;BME280;49654;51.142;14.924;2023-03-20T02:10:42;99188.94;;;10.13;78.36
63500;BME280;49654;51.142;14.924;2023-03-20T02:13:12;99195.53;;;10.23;77.97
63500;BME280;49654;51.142;14.924;2023-03-20T02:15:54;99166.72;;;10.10;78.21
63500;BME280;49654;51.142;14.924;2023-03-20T02:18:21;99176.78;;;10.13;78.10
63500;BME280;49654;51.142;14.924;2023-03-20T02:21:04;99182.09;;;10.20;78.12
63500;BME280;49654;51.142;14.924;2023-03-20T02:23:56;99182.72;;;10.22;77.58
63500;BME280;49654;51.142;14.924;2023-03-20T02:26:33;99181.25;;;10.27;77.43
63500;BME280;49654;51.142;14.924;2023-03-20T02:32:47;99186.91;;;10.31;77.27
63500;BME280;49654;51.142;14.924;2023-03-20T02:35:54;99151.91;;;10.27;76.68
63500;BME280;49654;51.142;14.924;2023-03-20T02:38:42;99172.63;;;10.35;76.92
63500;BME280;49654;51.142;14.924;2023-03-20T02:41:20;99175.81;;;10.45;76.23
63500;BME280;49654;51.142;14.924;2023-03-20T02:43:54;99167.22;;;10.45;76.39
63500;BME280;49654;51.142;14.924;2023-03-20T02:46:28;99173.38;;;10.44;76.67
63500;BME280;49654;51.142;14.924;2023-03-20T02:49:02;99176.59;;;10.46;76.65
63500;BME280;49654;51.142;14.924;2023-03-20T02:51:36;99168.88;;;10.61;76.14
63500;BME280;49654;51.142;14.924;2023-03-20T02:54:10;99169.56;;;10.55;76.06
63500;BME280;49654;51.142;14.924;2023-03-20T02:56:45;99150.75;;;10.52;75.92
63500;BME280;49654;51.142;14.924;2023-03-20T02:59:21;99142.22;;;10.44;75.90
63500;BME280;49654;51.142;14.924;2023-03-20T03:01:55;99167.28;;;10.74;75.54
63500;BME280;49654;51.142;14.924;2023-03-20T03:04:26;99166.38;;;10.67;75.11
63500;BME280;49654;51.142;14.924;2023-03-20T03:06:55;99170.72;;;10.75;75.44
63500;BME280;49654;51.142;14.924;2023-03-20T03:09:28;99158.81;;;10.81;75.24
63500;BME280;49654;51.142;14.924;2023-03-20T03:11:58;99177.06;;;10.72;74.93
63500;BME280;49654;51.142;14.924;2023-03-20T03:14:31;99165.78;;;10.80;74.81
63500;BME280;49654;51.142;14.924;2023-03-20T03:17:00;99147.34;;;10.52;75.00
63500;BME280;49654;51.142;14.924;2023-03-20T03:19:29;99126.63;;;10.44;74.94
63500;BME280;49654;51.142;14.924;2023-03-20T03:21:58;99172.03;;;10.71;74.77
63500;BME280;49654;51.142;14.924;2023-03-20T03:24:29;99170.72;;;10.75;74.69
63500;BME280;49654;51.142;14.924;2023-03-20T03:26:59;99168.72;;;10.77;74.43
63500;BME280;49654;51.142;14.924;2023-03-20T03:29:30;99172.66;;;10.73;74.78
63500;BME280;49654;51.142;14.924;2023-03-20T03:31:59;99174.72;;;10.77;74.87
63500;BME280;49654;51.142;14.924;2023-03-20T03:34:27;99170.81;;;10.82;74.57
63500;BME280;49654;51.142;14.924;2023-03-20T03:37:01;99155.13;;;10.75;73.87
63500;BME280;49654;51.142;14.924;2023-03-20T03:39:37;99173.06;;;10.85;74.34
63500;BME280;49654;51.142;14.924;2023-03-20T03:42:08;99168.47;;;10.87;74.19
63500;BME280;49654;51.142;14.924;2023-03-20T03:44:44;99147.47;;;10.59;74.60
63500;BME280;49654;51.142;14.924;2023-03-20T03:47:17;99169.81;;;10.83;74.29
63500;BME280;49654;51.142;14.924;2023-03-20T03:49:48;99173.13;;;10.76;74.37
63500;BME280;49654;51.142;14.924;2023-03-20T03:52:19;99177.06;;;10.72;74.92
63500;BME280;49654;51.142;14.924;2023-03-20T03:54:51;99171.75;;;10.66;75.34
63500;BME280;49654;51.142;14.924;2023-03-20T03:57:22;99169.25;;;10.72;75.03
63500;BME280;49654;51.142;14.924;2023-03-20T03:59:51;99168.25;;;10.59;75.04
63500;BME280;49654;51.142;14.924;2023-03-20T04:02:21;99170.91;;;10.50;75.58
63500;BME280;49654;51.142;14.924;2023-03-20T04:04:51;99159.94;;;10.63;75.23
63500;BME280;49654;51.142;14.924;2023-03-20T04:07:19;99120.94;;;10.25;75.06
63500;BME280;49654;51.142;14.924;2023-03-20T04:09:47;99185.44;;;10.60;75.19
63500;BME280;49654;51.142;14.924;2023-03-20T04:12:32;99165.75;;;10.65;74.77
63500;BME280;49654;51.142;14.924;2023-03-20T04:15:00;99163.25;;;10.72;74.60
63500;BME280;49654;51.142;14.924;2023-03-20T04:17:27;99173.13;;;10.76;74.63
63500;BME280;49654;51.142;14.924;2023-03-20T04:19:54;99051.38;;;9.98;74.50
63500;BME280;49654;51.142;14.924;2023-03-20T04:22:21;99176.78;;;10.67;75.01
63500;BME280;49654;51.142;14.924;2023-03-20T04:24:48;99166.66;;;10.72;74.70
63500;BME280;49654;51.142;14.924;2023-03-20T04:27:15;99174.47;;;10.72;74.57
63500;BME280;49654;51.142;14.924;2023-03-20T04:29:44;99162.63;;;10.70;74.65
63500;BME280;49654;51.142;14.924;2023-03-20T04:32:11;99164.13;;;10.64;74.91
63500;BME280;49654;51.142;14.924;2023-03-20T04:34:38;99116.69;;;10.33;74.95
63500;BME280;49654;51.142;14.924;2023-03-20T04:37:05;99169.66;;;10.61;74.91
63500;BME280;49654;51.142;14.924;2023-03-20T04:39:33;99168.13;;;10.52;75.08
63500;BME280;49654;51.142;14.924;2023-03-20T04:42:01;99155.84;;;10.46;75.27
63500;BME280;49654;51.142;14.924;2023-03-20T04:44:29;99145.78;;;10.43;75.05
63500;BME280;49654;51.142;14.924;2023-03-20T04:46:57;99168.41;;;10.57;75.04
63500;BME280;49654;51.142;14.924;2023-03-20T04:49:24;99153.16;;;10.31;75.35
63500;BME280;49654;51.142;14.924;2023-03-20T04:51:51;99169.78;;;10.14;76.83
63500;BME280;49654;51.142;14.924;2023-03-20T04:54:18;99172.91;;;10.09;77.03
63500;BME280;49654;51.142;14.924;2023-03-20T04:56:45;99179.09;;;10.08;77.53
63500;BME280;49654;51.142;14.924;2023-03-20T04:59:12;99168.41;;;10.03;77.51
63500;BME280;49654;51.142;14.924;2023-03-20T05:01:39;99180.19;;;9.83;78.78
63500;BME280;49654;51.142;14.924;2023-03-20T05:04:07;99166.78;;;9.63;79.60
63500;BME280;49654;51.142;14.924;2023-03-20T05:06:34;99185.94;;;9.62;80.35
63500;BME280;49654;51.142;14.924;2023-03-20T05:09:01;99186.91;;;9.61;80.83
63500;BME280;49654;51.142;14.924;2023-03-20T05:11:29;99187.44;;;9.48;81.43
63500;BME280;49654;51.142;14.924;2023-03-20T05:13:56;99185.50;;;9.42;81.89
63500;BME280;49654;51.142;14.924;2023-03-20T05:16:23;99184.22;;;9.38;82.10
63500;BME280;49654;51.142;14.924;2023-03-20T05:18:50;99187.66;;;9.30;83.17
63500;BME280;49654;51.142;14.924;2023-03-20T05:21:18;99196.25;;;9.22;83.48
63500;BME280;49654;51.142;14.924;2023-03-20T05:23:45;99076.06;;;8.43;84.00
63500;BME280;49654;51.142;14.924;2023-03-20T05:26:12;99188.97;;;9.18;83.50
63500;BME280;49654;51.142;14.924;2023-03-20T05:28:38;99195.94;;;9.17;84.05
63500;BME280;49654;51.142;14.924;2023-03-20T05:31:05;99206.13;;;9.27;83.75
63500;BME280;49654;51.142;14.924;2023-03-20T05:33:32;99200.22;;;9.49;82.67
63500;BME280;49654;51.142;14.924;2023-03-20T05:35:59;99205.06;;;9.61;81.85
63500;BME280;49654;51.142;14.924;2023-03-20T05:38:28;99208.81;;;9.42;82.82
63500;BME280;49654;51.142;14.924;2023-03-20T05:40:55;99202.28;;;9.62;82.37
63500;BME280;49654;51.142;14.924;2023-03-20T05:43:23;99210.31;;;9.84;80.90
63500;BME280;49654;51.142;14.924;2023-03-20T05:45:50;99206.38;;;9.96;79.74
63500;BME280;49654;51.142;14.924;2023-03-20T05:48:17;99208.66;;;9.99;79.40
63500;BME280;49654;51.142;14.924;2023-03-20T05:50:44;99216.44;;;9.99;79.21
63500;BME280;49654;51.142;14.924;2023-03-20T05:53:11;99214.75;;;10.06;78.69
63500;BME280;49654;51.142;14.924;2023-03-20T05:55:40;99178.22;;;9.85;78.73
63500;BME280;49654;51.142;14.924;2023-03-20T05:58:10;99216.00;;;10.18;78.16
63500;BME280;49654;51.142;14.924;2023-03-20T06:00:37;99223.44;;;10.21;78.31
63500;BME280;49654;51.142;14.924;2023-03-20T06:03:04;99216.66;;;10.20;78.58
63500;BME280;49654;51.142;14.924;2023-03-20T06:05:32;99224.47;;;10.12;79.12
63500;BME280;49654;51.142;14.924;2023-03-20T06:07:59;99227.53;;;10.16;79.72
63500;BME280;49654;51.142;14.924;2023-03-20T06:10:27;99215.38;;;9.77;81.38
63500;BME280;49654;51.142;14.924;2023-03-20T06:12:56;99236.25;;;9.84;82.11
63500;BME280;49654;51.142;14.924;2023-03-20T06:15:25;99236.56;;;9.81;83.08
63500;BME280;49654;51.142;14.924;2023-03-20T06:17:53;99242.19;;;10.00;81.91
63500;BME280;49654;51.142;14.924;2023-03-20T06:20:20;99239.59;;;10.40;80.29
63500;BME280;49654;51.142;14.924;2023-03-20T06:22:47;99241.09;;;10.34;79.68
63500;BME280;49654;51.142;14.924;2023-03-20T06:25:14;99248.44;;;10.53;79.26
63500;BME280;49654;51.142;14.924;2023-03-20T06:27:41;99244.69;;;10.56;78.56
63500;BME280;49654;51.142;14.924;2023-03-20T06:30:10;99250.59;;;10.73;77.70
63500;BME280;49654;51.142;14.924;2023-03-20T06:32:37;99253.38;;;10.71;77.51
63500;BME280;49654;51.142;14.924;2023-03-20T06:35:05;99256.19;;;10.85;76.29
63500;BME280;49654;51.142;14.924;2023-03-20T06:37:32;99252.81;;;10.99;75.61
63500;BME280;49654;51.142;14.924;2023-03-20T06:39:59;99262.22;;;11.00;75.85
63500;BME280;49654;51.142;14.924;2023-03-20T06:42:26;99243.03;;;11.24;74.81
63500;BME280;49654;51.142;14.924;2023-03-20T06:44:53;99264.75;;;11.46;73.98
63500;BME280;49654;51.142;14.924;2023-03-20T06:47:22;99246.63;;;11.38;73.54
63500;BME280;49654;51.142;14.924;2023-03-20T06:49:49;99265.63;;;11.38;73.59
63500;BME280;49654;51.142;14.924;2023-03-20T06:52:17;99232.16;;;11.20;73.83
63500;BME280;49654;51.142;14.924;2023-03-20T06:54:46;99260.63;;;11.37;74.13
63500;BME280;49654;51.142;14.924;2023-03-20T06:57:13;99269.88;;;11.39;74.96
63500;BME280;49654;51.142;14.924;2023-03-20T06:59:42;99253.97;;;11.87;74.34
63500;BME280;49654;51.142;14.924;2023-03-20T07:02:09;99241.38;;;12.05;74.06
63500;BME280;49654;51.142;14.924;2023-03-20T07:04:38;99263.84;;;12.42;72.81
63500;BME280;49654;51.142;14.924;2023-03-20T07:07:05;99249.25;;;12.26;72.78
63500;BME280;49654;51.142;14.924;2023-03-20T07:09:32;99258.09;;;11.96;72.13
63500;BME280;49654;51.142;14.924;2023-03-20T07:11:59;99260.03;;;11.94;72.59
63500;BME280;49654;51.142;14.924;2023-03-20T07:14:27;99248.38;;;11.75;72.67
63500;BME280;49654;51.142;14.924;2023-03-20T07:16:54;99265.59;;;12.06;72.65
63500;BME280;49654;51.142;14.924;2023-03-20T07:19:22;99270.91;;;12.12;72.32
63500;BME280;49654;51.142;14.924;2023-03-20T07:21:51;99271.00;;;11.89;72.80
63500;BME280;49654;51.142;14.924;2023-03-20T07:24:21;99270.00;;;12.05;72.71
63500;BME280;49654;51.142;14.924;2023-03-20T07:26:48;99275.47;;;12.25;72.24
63500;BME280;49654;51.142;14.924;2023-03-20T07:29:15;99268.09;;;12.14;72.12
63500;BME280;49654;51.142;14.924;2023-03-20T07:31:42;99269.28;;;12.11;72.01
63500;BME280;49654;51.142;14.924;2023-03-20T07:34:09;99257.25;;;12.10;71.46
63500;BME280;49654;51.142;14.924;2023-03-20T07:36:36;99270.91;;;12.12;71.33
63500;BME280;49654;51.142;14.924;2023-03-20T07:39:04;99267.59;;;12.40;71.69
63500;BME280;49654;51.142;14.924;2023-03-20T07:41:31;99268.66;;;12.45;71.40
63500;BME280;49654;51.142;14.924;2023-03-20T07:43:58;99270.13;;;12.33;71.76
63500;BME280;49654;51.142;14.924;2023-03-20T07:46:25;99280.56;;;12.69;71.77
63500;BME280;49654;51.142;14.924;2023-03-20T07:48:52;99277.06;;;12.84;70.97
63500;BME280;49654;51.142;14.924;2023-03-20T07:51:21;99269.88;;;12.86;71.48
63500;BME280;49654;51.142;14.924;2023-03-20T07:53:48;99276.34;;;13.33;71.07
63500;BME280;49654;51.142;14.924;2023-03-20T07:56:16;99275.28;;;13.55;69.48
63500;BME280;49654;51.142;14.924;2023-03-20T07:58:43;99278.03;;;13.47;69.35
63500;BME280;49654;51.142;14.924;2023-03-20T08:01:10;99274.19;;;13.43;69.78
63500;BME280;49654;51.142;14.924;2023-03-20T08:03:37;99280.66;;;13.47;69.14
63500;BME280;49654;51.142;14.924;2023-03-20T08:06:04;99284.00;;;13.69;68.59
63500;BME280;49654;51.142;14.924;2023-03-20T08:08:34;99268.94;;;13.36;69.10
63500;BME280;49654;51.142;14.924;2023-03-20T08:11:01;99279.41;;;13.21;70.18
63500;BME280;49654;51.142;14.924;2023-03-20T08:13:29;99260.84;;;13.31;69.89
63500;BME280;49654;51.142;14.924;2023-03-20T08:15:56;99258.69;;;13.35;69.14
63500;BME280;49654;51.142;14.924;2023-03-20T08:18:23;99268.69;;;13.94;67.77
63500;BME280;49654;51.142;14.924;2023-03-20T08:20:50;99270.47;;;14.41;64.82
63500;BME280;49654;51.142;14.924;2023-03-20T08:23:18;99272.91;;;13.95;64.66
63500;BME280;49654;51.142;14.924;2023-03-20T08:25:48;99268.94;;;14.06;64.91
63500;BME280;49654;51.142;14.924;2023-03-20T08:28:16;99273.41;;;14.18;63.82
63500;BME280;49654;51.142;14.924;2023-03-20T08:30:44;99284.50;;;14.34;65.86
63500;BME280;49654;51.142;14.924;2023-03-20T08:33:12;99257.41;;;14.35;63.08
63500;BME280;49654;51.142;14.924;2023-03-20T08:35:39;99258.06;;;14.50;62.89
63500;BME280;49654;51.142;14.924;2023-03-20T08:38:06;99274.16;;;14.53;63.04
63500;BME280;49654;51.142;14.924;2023-03-20T08:40:33;99275.75;;;14.55;62.90
63500;BME280;49654;51.142;14.924;2023-03-20T08:43:00;99268.41;;;14.23;63.70
63500;BME280;49654;51.142;14.924;2023-03-20T08:45:28;99273.25;;;14.26;63.93
63500;BME280;49654;51.142;14.924;2023-03-20T08:47:56;99281.25;;;14.25;65.21
63500;BME280;49654;51.142;14.924;2023-03-20T08:50:23;99276.81;;;14.67;63.01
63500;BME280;49654;51.142;14.924;2023-03-20T08:52:50;99275.03;;;14.87;63.11
63500;BME280;49654;51.142;14.924;2023-03-20T08:55:17;99290.63;;;14.54;62.47
63500;BME280;49654;51.142;14.924;2023-03-20T08:57:45;99287.38;;;14.45;63.03
63500;BME280;49654;51.142;14.924;2023-03-20T09:00:13;99289.91;;;14.87;61.93
63500;BME280;49654;51.142;14.924;2023-03-20T09:02:41;99289.53;;;15.16;61.53
63500;BME280;49654;51.142;14.924;2023-03-20T09:05:10;99293.56;;;15.72;60.90
63500;BME280;49654;51.142;14.924;2023-03-20T09:07:37;99285.72;;;15.72;59.58
63500;BME280;49654;51.142;14.924;2023-03-20T09:10:05;99294.91;;;15.88;60.92
63500;BME280;49654;51.142;14.924;2023-03-20T09:12:32;99282.69;;;15.68;60.12
63500;BME280;49654;51.142;14.924;2023-03-20T09:14:59;99288.31;;;15.52;60.27
63500;BME280;49654;51.142;14.924;2023-03-20T09:17:27;99262.94;;;15.46;59.98
63500;BME280;49654;51.142;14.924;2023-03-20T09:19:54;99287.13;;;15.48;59.80
63500;BME280;49654;51.142;14.924;2023-03-20T09:22:23;99291.75;;;15.06;61.27
63500;BME280;49654;51.142;14.924;2023-03-20T09:24:50;99284.72;;;15.26;61.35
63500;BME280;49654;51.142;14.924;2023-03-20T09:27:17;99286.13;;;15.09;62.45
63500;BME280;49654;51.142;14.924;2023-03-20T09:29:44;99247.06;;;15.41;61.58
63500;BME280;49654;51.142;14.924;2023-03-20T09:32:12;99245.44;;;15.66;59.34
63500;BME280;49654;51.142;14.924;2023-03-20T09:34:39;99283.47;;;15.89;58.55
63500;BME280;49654;51.142;14.924;2023-03-20T09:37:06;99288.72;;;15.56;60.02
63500;BME280;49654;51.142;14.924;2023-03-20T09:39:35;99283.69;;;15.74;60.42
63500;BME280;49654;51.142;14.924;2023-03-20T09:42:07;99287.91;;;15.75;60.23
63500;BME280;49654;51.142;14.924;2023-03-20T09:44:47;99249.66;;;15.54;59.07
63500;BME280;49654;51.142;14.924;2023-03-20T09:47:23;99287.91;;;15.15;60.31
63500;BME280;49654;51.142;14.924;2023-03-20T09:50:11;99265.78;;;14.98;61.55
63500;BME280;49654;51.142;14.924;2023-03-20T09:52:42;99289.53;;;15.30;60.61
63500;BME280;49654;51.142;14.924;2023-03-20T09:55:16;99284.28;;;15.56;61.26
63500;BME280;49654;51.142;14.924;2023-03-20T09:57:46;99287.09;;;15.74;59.96
63500;BME280;49654;51.142;14.924;2023-03-20T10:00:18;99270.53;;;15.94;59.48
63500;BME280;49654;51.142;14.924;2023-03-20T10:02:49;99282.00;;;15.99;60.19
63500;BME280;49654;51.142;14.924;2023-03-20T10:05:20;99286.31;;;15.01;60.84
63500;BME280;49654;51.142;14.924;2023-03-20T10:07:50;99282.69;;;14.95;61.89
63500;BME280;49654;51.142;14.924;2023-03-20T10:10:22;99285.69;;;14.79;63.33
63500;BME280;49654;51.142;14.924;2023-03-20T10:13:02;99142.44;;;13.60;64.17
63500;BME280;49654;51.142;14.924;2023-03-20T10:15:46;99282.25;;;14.78;63.43
63500;BME280;49654;51.142;14.924;2023-03-20T10:18:21;99277.88;;;14.99;66.00
63500;BME280;49654;51.142;14.924;2023-03-20T10:20:54;99284.09;;;15.31;62.16
63500;BME280;49654;51.142;14.924;2023-03-20T10:23:29;99287.69;;;15.83;61.95
63500;BME280;49654;51.142;14.924;2023-03-20T10:26:03;99278.97;;;15.96;60.72
63500;BME280;49654;51.142;14.924;2023-03-20T10:28:35;99283.25;;;15.84;61.58
63500;BME280;49654;51.142;14.924;2023-03-20T10:31:16;99268.19;;;15.59;60.12
63500;BME280;49654;51.142;14.924;2023-03-20T10:33:56;99282.25;;;15.85;60.34
63500;BME280;49654;51.142;14.924;2023-03-20T10:36:37;99284.06;;;15.71;59.28
63500;BME280;49654;51.142;14.924;2023-03-20T10:39:12;99283.47;;;15.89;58.72
63500;BME280;49654;51.142;14.924;2023-03-20T10:41:50;99171.00;;;15.16;59.53
63500;BME280;49654;51.142;14.924;2023-03-20T10:44:29;99281.78;;;16.08;57.92
63500;BME280;49654;51.142;14.924;2023-03-20T10:46:59;99269.53;;;15.95;59.48
63500;BME280;49654;51.142;14.924;2023-03-20T10:49:32;99272.38;;;16.38;58.49
63500;BME280;49654;51.142;14.924;2023-03-20T10:52:02;99267.44;;;16.55;57.40
63500;BME280;49654;51.142;14.924;2023-03-20T10:54:33;99282.94;;;16.63;56.81
63500;BME280;49654;51.142;14.924;2023-03-20T10:57:04;99273.28;;;16.12;57.00
63500;BME280;49654;51.142;14.924;2023-03-20T10:59:35;99284.22;;;16.02;57.77
63500;BME280;49654;51.142;14.924;2023-03-20T11:02:09;99286.84;;;15.96;58.04
63500;BME280;49654;51.142;14.924;2023-03-20T11:04:36;99280.22;;;15.87;57.91
63500;BME280;49654;51.142;14.924;2023-03-20T11:07:12;99259.28;;;15.87;57.68
63500;BME280;49654;51.142;14.924;2023-03-20T11:09:42;99279.38;;;15.93;59.12
63500;BME280;49654;51.142;14.924;2023-03-20T11:12:16;99277.16;;;16.03;58.24
63500;BME280;49654;51.142;14.924;2023-03-20T11:14:43;99272.91;;;16.09;59.26
63500;BME280;49654;51.142;14.924;2023-03-20T11:17:11;99276.28;;;16.61;57.34
63500;BME280;49654;51.142;14.924;2023-03-20T11:19:40;99279.13;;;16.52;56.31
63500;BME280;49654;51.142;14.924;2023-03-20T11:22:12;99277.06;;;16.68;55.94
63500;BME280;49654;51.142;14.924;2023-03-20T11:24:50;99267.94;;;15.87;57.68
63500;BME280;49654;51.142;14.924;2023-03-20T11:27:24;99264.94;;;15.57;58.77
63500;BME280;49654;51.142;14.924;2023-03-20T11:29:52;99282.69;;;15.68;58.94
63500;BME280;49654;51.142;14.924;2023-03-20T11:32:26;99280.84;;;15.49;59.34
63500;BME280;49654;51.142;14.924;2023-03-20T11:34:54;99271.44;;;15.21;59.82
63500;BME280;49654;51.142;14.924;2023-03-20T11:37:24;99277.44;;;15.48;58.95
63500;BME280;49654;51.142;14.924;2023-03-20T11:39:58;99281.41;;;15.91;57.76
63500;BME280;49654;51.142;14.924;2023-03-20T11:42:28;99271.16;;;15.83;56.83
63500;BME280;49654;51.142;14.924;2023-03-20T11:44:58;99246.41;;;15.78;54.82
63500;BME280;49654;51.142;14.924;2023-03-20T11:47:27;99235.19;;;16.55;54.04
63500;BME280;49654;51.142;14.924;2023-03-20T11:49:58;99272.72;;;17.37;52.57
63500;BME280;49654;51.142;14.924;2023-03-20T11:52:28;99271.88;;;18.05;52.32
63500;BME280;49654;51.142;14.924;2023-03-20T11:54:59;99247.63;;;18.63;50.75
63500;BME280;49654;51.142;14.924;2023-03-20T11:57:32;99257.06;;;19.36;49.90
63500;BME280;49654;51.142;14.924;2023-03-20T12:00:03;99260.38;;;19.19;49.45
63500;BME280;49654;51.142;14.924;2023-03-20T12:02:31;99252.19;;;18.56;51.88
63500;BME280;49654;51.142;14.924;2023-03-20T12:04:59;99248.50;;;17.96;51.98
63500;BME280;49654;51.142;14.924;2023-03-20T12:07:29;99227.22;;;16.99;54.72
63500;BME280;49654;51.142;14.924;2023-03-20T12:10:01;99262.66;;;16.45;56.88
63500;BME280;49654;51.142;14.924;2023-03-20T12:12:37;99259.44;;;15.98;60.57
63500;BME280;49654;51.142;14.924;2023-03-20T12:15:14;99260.41;;;16.04;61.84
63500;BME280;49654;51.142;14.924;2023-03-20T12:17:45;99261.63;;;16.01;61.98
63500;BME280;49654;51.142;14.924;2023-03-20T12:20:23;99267.50;;;15.97;62.41
63500;BME280;49654;51.142;14.924;2023-03-20T12:22:57;99266.06;;;16.01;63.57
63500;BME280;49654;51.142;14.924;2023-03-20T12:25:26;99249.28;;;15.44;63.47
63500;BME280;49654;51.142;14.924;2023-03-20T12:28:02;99260.56;;;15.11;63.72
63500;BME280;49654;51.142;14.924;2023-03-20T12:30:40;99272.63;;;15.32;64.14
63500;BME280;49654;51.142;14.924;2023-03-20T12:33:15;99268.41;;;15.31;64.20
63500;BME280;49654;51.142;14.924;2023-03-20T12:35:45;99264.97;;;14.84;64.62
63500;BME280;49654;51.142;14.924;2023-03-20T12:38:22;99277.06;;;14.92;64.76
63500;BME280;49654;51.142;14.924;2023-03-20T12:40:54;99261.50;;;14.57;65.92
63500;BME280;49654;51.142;14.924;2023-03-20T12:43:25;99276.13;;;14.45;65.68
63500;BME280;49654;51.142;14.924;2023-03-20T12:45:58;99269.75;;;14.61;66.95
63500;BME280;49654;51.142;14.924;2023-03-20T12:48:39;99271.22;;;14.28;66.36
63500;BME280;49654;51.142;14.924;2023-03-20T12:51:16;99269.66;;;14.41;66.67
63500;BME280;49654;51.142;14.924;2023-03-20T12:53:54;99267.66;;;14.36;66.69
63500;BME280;49654;51.142;14.924;2023-03-20T12:56:33;99266.75;;;14.57;66.28
63500;BME280;49654;51.142;14.924;2023-03-20T12:59:10;99264.38;;;14.82;66.35
63500;BME280;49654;51.142;14.924;2023-03-20T13:01:44;99244.88;;;14.78;65.67
63500;BME280;49654;51.142;14.924;2023-03-20T13:04:25;99250.72;;;15.13;64.46
63500;BME280;49654;51.142;14.924;2023-03-20T13:06:59;99206.47;;;14.92;64.65
63500;BME280;49654;51.142;14.924;2023-03-20T13:09:44;99244.63;;;14.66;65.42
63500;BME280;49654;51.142;14.924;2023-03-20T13:12:20;99251.66;;;14.72;64.32